sensor_id;sensor_type;location;lat;lon;timestamp;P1;durP1;ratioP1;P2;durP2;ratioP2
69937;SDS011;57248;47.320;15.998;2024-01-30T00:00:57;2.10;;;0.73;;
69937;SDS011;57248;47.320;15.998;2024-01-30T00:03:29;3.13;;;1.00;;
69937;SDS011;57248;47.320;15.998;2024-01-30T00:06:08;1.70;;;0.60;;
69937;SDS011;57248;47.320;15.998;2024-01-30T00:08:40;0.82;;;0.20;;
69937;SDS011;57248;47.320;15.998;2024-01-30T00:11:12;3.00;;;0.40;;
69937;SDS011;57248;47.320;15.998;2024-01-30T00:13:38;4.03;;;1.23;;
69937;SDS011;57248;47.320;15.998;2024-01-30T00:16:19;1.55;;;0.30;;
69937;SDS011;57248;47.320;15.998;2024-01-30T00:18:57;3.30;;;0.65;;
69937;SDS011;57248;47.320;15.998;2024-01-30T00:21:29;2.03;;;0.65;;
69937;SDS011;57248;47.320;15.998;2024-01-30T00:24:01;0.77;;;0.43;;
69937;SDS011;57248;47.320;15.998;2024-01-30T00:26:33;4.13;;;0.60;;
69937;SDS011;57248;47.320;15.998;2024-01-30T00:29:05;5.70;;;0.70;;
69937;SDS011;57248;47.320;15.998;2024-01-30T00:31:37;1.25;;;0.57;;
69937;SDS011;57248;47.320;15.998;2024-01-30T00:34:09;1.80;;;0.77;;
69937;SDS011;57248;47.320;15.998;2024-01-30T00:36:48;2.03;;;0.90;;
69937;SDS011;57248;47.320;15.998;2024-01-30T00:39:20;1.77;;;0.40;;
69937;SDS011;57248;47.320;15.998;2024-01-30T00:41:52;2.40;;;0.88;;
69937;SDS011;57248;47.320;15.998;2024-01-30T00:44:26;2.47;;;1.00;;
69937;SDS011;57248;47.320;15.998;2024-01-30T00:46:51;2.40;;;0.73;;
69937;SDS011;57248;47.320;15.998;2024-01-30T00:49:23;1.52;;;0.70;;
69937;SDS011;57248;47.320;15.998;2024-01-30T00:51:55;3.35;;;0.50;;
69937;SDS011;57248;47.320;15.998;2024-01-30T00:54:27;4.40;;;0.97;;
69937;SDS011;57248;47.320;15.998;2024-01-30T00:57:00;1.63;;;0.70;;
69937;SDS011;57248;47.320;15.998;2024-01-30T00:59:32;0.47;;;0.17;;
69937;SDS011;57248;47.320;15.998;2024-01-30T01:02:05;1.25;;;0.30;;
69937;SDS011;57248;47.320;15.998;2024-01-30T01:04:37;0.47;;;0.20;;
69937;SDS011;57248;47.320;15.998;2024-01-30T01:07:10;3.03;;;0.47;;
69937;SDS011;57248;47.320;15.998;2024-01-30T01:09:42;2.05;;;0.40;;
69937;SDS011;57248;47.320;15.998;2024-01-30T01:12:14;1.15;;;0.70;;
69937;SDS011;57248;47.320;15.998;2024-01-30T01:14:47;1.30;;;0.40;;
69937;SDS011;57248;47.320;15.998;2024-01-30T01:17:19;4.40;;;1.17;;
69937;SDS011;57248;47.320;15.998;2024-01-30T01:19:51;3.27;;;0.43;;
69937;SDS011;57248;47.320;15.998;2024-01-30T01:22:23;2.38;;;0.75;;
69937;SDS011;57248;47.320;15.998;2024-01-30T01:24:49;2.08;;;0.60;;
69937;SDS011;57248;47.320;15.998;2024-01-30T01:27:20;2.27;;;0.83;;
69937;SDS011;57248;47.320;15.998;2024-01-30T01:29:53;1.33;;;0.45;;
69937;SDS011;57248;47.320;15.998;2024-01-30T01:32:25;1.42;;;0.52;;
69937;SDS011;57248;47.320;15.998;2024-01-30T01:34:57;2.78;;;0.98;;
69937;SDS011;57248;47.320;15.998;2024-01-30T01:37:29;1.00;;;0.17;;
69937;SDS011;57248;47.320;15.998;2024-01-30T01:40:08;1.33;;;0.33;;
69937;SDS011;57248;47.320;15.998;2024-01-30T01:42:40;1.27;;;0.40;;
69937;SDS011;57248;47.320;15.998;2024-01-30T01:45:12;1.25;;;0.70;;
69937;SDS011;57248;47.320;15.998;2024-01-30T01:47:45;2.30;;;0.57;;
69937;SDS011;57248;47.320;15.998;2024-01-30T01:50:19;0.68;;;0.20;;
69937;SDS011;57248;47.320;15.998;2024-01-30T01:52:52;1.87;;;0.77;;
69937;SDS011;57248;47.320;15.998;2024-01-30T01:55:26;1.60;;;0.90;;
69937;SDS011;57248;47.320;15.998;2024-01-30T01:57:54;1.42;;;0.65;;
69937;SDS011;57248;47.320;15.998;2024-01-30T02:00:27;1.55;;;0.50;;
69937;SDS011;57248;47.320;15.998;2024-01-30T02:02:59;0.65;;;0.30;;
69937;SDS011;57248;47.320;15.998;2024-01-30T02:05:31;1.00;;;0.30;;
69937;SDS011;57248;47.320;15.998;2024-01-30T02:08:03;2.65;;;0.68;;
69937;SDS011;57248;47.320;15.998;2024-01-30T02:10:36;0.90;;;0.20;;
69937;SDS011;57248;47.320;15.998;2024-01-30T02:13:08;0.90;;;0.30;;
69937;SDS011;57248;47.320;15.998;2024-01-30T02:15:40;1.85;;;0.73;;
69937;SDS011;57248;47.320;15.998;2024-01-30T02:18:12;2.57;;;0.47;;
69937;SDS011;57248;47.320;15.998;2024-01-30T02:20:38;0.20;;;0.00;;
69937;SDS011;57248;47.320;15.998;2024-01-30T02:23:10;2.53;;;0.65;;
69937;SDS011;57248;47.320;15.998;2024-01-30T02:25:43;2.20;;;0.73;;
69937;SDS011;57248;47.320;15.998;2024-01-30T02:28:15;0.82;;;0.30;;
69937;SDS011;57248;47.320;15.998;2024-01-30T02:30:47;2.35;;;0.30;;
69937;SDS011;57248;47.320;15.998;2024-01-30T02:33:19;0.57;;;0.10;;
69937;SDS011;57248;47.320;15.998;2024-01-30T02:36:00;2.47;;;0.45;;
69937;SDS011;57248;47.320;15.998;2024-01-30T02:38:32;2.97;;;0.57;;
69937;SDS011;57248;47.320;15.998;2024-01-30T02:41:11;0.43;;;0.10;;
69937;SDS011;57248;47.320;15.998;2024-01-30T02:43:43;0.95;;;0.10;;
69937;SDS011;57248;47.320;15.998;2024-01-30T02:46:15;0.73;;;0.10;;
69937;SDS011;57248;47.320;15.998;2024-01-30T02:48:41;5.60;;;0.93;;
69937;SDS011;57248;47.320;15.998;2024-01-30T02:51:12;0.30;;;0.13;;
69937;SDS011;57248;47.320;15.998;2024-01-30T02:53:44;0.98;;;0.32;;
69937;SDS011;57248;47.320;15.998;2024-01-30T02:56:16;2.13;;;0.77;;
69937;SDS011;57248;47.320;15.998;2024-01-30T02:58:48;0.40;;;0.10;;
69937;SDS011;57248;47.320;15.998;2024-01-30T03:01:20;1.02;;;0.35;;
69937;SDS011;57248;47.320;15.998;2024-01-30T03:03:52;0.65;;;0.17;;
69937;SDS011;57248;47.320;15.998;2024-01-30T03:06:24;3.05;;;0.95;;
69937;SDS011;57248;47.320;15.998;2024-01-30T03:08:56;0.98;;;0.50;;
69937;SDS011;57248;47.320;15.998;2024-01-30T03:11:28;3.07;;;0.63;;
69937;SDS011;57248;47.320;15.998;2024-01-30T03:14:00;1.83;;;0.45;;
69937;SDS011;57248;47.320;15.998;2024-01-30T03:16:32;2.67;;;0.95;;
69937;SDS011;57248;47.320;15.998;2024-01-30T03:19:07;1.25;;;0.40;;
69937;SDS011;57248;47.320;15.998;2024-01-30T03:21:34;1.00;;;0.28;;
69937;SDS011;57248;47.320;15.998;2024-01-30T03:24:05;1.33;;;0.50;;
69937;SDS011;57248;47.320;15.998;2024-01-30T03:26:37;3.40;;;0.55;;
69937;SDS011;57248;47.320;15.998;2024-01-30T03:29:09;1.02;;;0.10;;
69937;SDS011;57248;47.320;15.998;2024-01-30T03:31:41;0.52;;;0.15;;
69937;SDS011;57248;47.320;15.998;2024-01-30T03:34:17;0.45;;;0.15;;
69937;SDS011;57248;47.320;15.998;2024-01-30T03:36:55;2.20;;;0.67;;
69937;SDS011;57248;47.320;15.998;2024-01-30T03:39:27;2.05;;;0.50;;
69937;SDS011;57248;47.320;15.998;2024-01-30T03:42:06;0.45;;;0.10;;
69937;SDS011;57248;47.320;15.998;2024-01-30T03:44:38;1.50;;;0.57;;
69937;SDS011;57248;47.320;15.998;2024-01-30T03:47:10;1.00;;;0.57;;
69937;SDS011;57248;47.320;15.998;2024-01-30T03:49:42;0.83;;;0.20;;
69937;SDS011;57248;47.320;15.998;2024-01-30T03:52:14;1.58;;;0.75;;
69937;SDS011;57248;47.320;15.998;2024-01-30T03:54:46;1.30;;;0.47;;
69937;SDS011;57248;47.320;15.998;2024-01-30T03:57:18;0.88;;;0.50;;
69937;SDS011;57248;47.320;15.998;2024-01-30T03:59:50;1.10;;;0.40;;
69937;SDS011;57248;47.320;15.998;2024-01-30T04:02:22;7.37;;;1.10;;
69937;SDS011;57248;47.320;15.998;2024-01-30T04:04:54;2.55;;;0.77;;
69937;SDS011;57248;47.320;15.998;2024-01-30T04:07:26;0.90;;;0.40;;
69937;SDS011;57248;47.320;15.998;2024-01-30T04:09:58;2.05;;;0.13;;
69937;SDS011;57248;47.320;15.998;2024-01-30T04:12:31;0.88;;;0.28;;
69937;SDS011;57248;47.320;15.998;2024-01-30T04:15:04;0.57;;;0.23;;
69937;SDS011;57248;47.320;15.998;2024-01-30T04:17:29;1.98;;;0.40;;
69937;SDS011;57248;47.320;15.998;2024-01-30T04:20:01;3.35;;;1.02;;
69937;SDS011;57248;47.320;15.998;2024-01-30T04:22:34;2.78;;;0.60;;
69937;SDS011;57248;47.320;15.998;2024-01-30T04:25:06;2.65;;;0.50;;
69937;SDS011;57248;47.320;15.998;2024-01-30T04:27:38;1.03;;;0.30;;
69937;SDS011;57248;47.320;15.998;2024-01-30T04:30:10;4.65;;;0.57;;
69937;SDS011;57248;47.320;15.998;2024-01-30T04:32:43;0.82;;;0.35;;
69937;SDS011;57248;47.320;15.998;2024-01-30T04:35:15;1.60;;;0.43;;
69937;SDS011;57248;47.320;15.998;2024-01-30T04:37:54;2.20;;;0.68;;
69937;SDS011;57248;47.320;15.998;2024-01-30T04:40:26;0.63;;;0.20;;
69937;SDS011;57248;47.320;15.998;2024-01-30T04:42:58;0.73;;;0.30;;
69937;SDS011;57248;47.320;15.998;2024-01-30T04:45:30;2.97;;;0.40;;
69937;SDS011;57248;47.320;15.998;2024-01-30T04:48:02;0.63;;;0.20;;
69937;SDS011;57248;47.320;15.998;2024-01-30T04:50:34;2.20;;;0.38;;
69937;SDS011;57248;47.320;15.998;2024-01-30T04:53:06;0.70;;;0.20;;
69937;SDS011;57248;47.320;15.998;2024-01-30T04:55:39;1.95;;;0.35;;
69937;SDS011;57248;47.320;15.998;2024-01-30T04:58:05;0.10;;;0.00;;
69937;SDS011;57248;47.320;15.998;2024-01-30T05:00:36;0.32;;;0.10;;
69937;SDS011;57248;47.320;15.998;2024-01-30T05:03:08;2.00;;;0.50;;
69937;SDS011;57248;47.320;15.998;2024-01-30T05:05:40;2.58;;;0.55;;
69937;SDS011;57248;47.320;15.998;2024-01-30T05:08:12;2.92;;;0.40;;
69937;SDS011;57248;47.320;15.998;2024-01-30T05:10:44;3.20;;;0.77;;
69937;SDS011;57248;47.320;15.998;2024-01-30T05:13:18;0.63;;;0.20;;
69937;SDS011;57248;47.320;15.998;2024-01-30T05:15:50;1.73;;;0.52;;
69937;SDS011;57248;47.320;15.998;2024-01-30T05:18:22;2.83;;;0.88;;
69937;SDS011;57248;47.320;15.998;2024-01-30T05:20:55;0.50;;;0.03;;
69937;SDS011;57248;47.320;15.998;2024-01-30T05:23:28;4.23;;;1.27;;
69937;SDS011;57248;47.320;15.998;2024-01-30T05:25:59;0.45;;;0.22;;
69937;SDS011;57248;47.320;15.998;2024-01-30T05:28:32;0.20;;;0.00;;
69937;SDS011;57248;47.320;15.998;2024-01-30T05:31:05;1.73;;;0.60;;
69937;SDS011;57248;47.320;15.998;2024-01-30T05:33:31;2.03;;;0.57;;
69937;SDS011;57248;47.320;15.998;2024-01-30T05:36:03;0.82;;;0.32;;
69937;SDS011;57248;47.320;15.998;2024-01-30T05:38:35;1.70;;;0.50;;
69937;SDS011;57248;47.320;15.998;2024-01-30T05:41:14;1.55;;;0.43;;
69937;SDS011;57248;47.320;15.998;2024-01-30T05:43:46;1.80;;;0.50;;
69937;SDS011;57248;47.320;15.998;2024-01-30T05:46:19;1.15;;;0.40;;
69937;SDS011;57248;47.320;15.998;2024-01-30T05:48:51;0.28;;;0.03;;
69937;SDS011;57248;47.320;15.998;2024-01-30T05:51:23;2.38;;;0.43;;
69937;SDS011;57248;47.320;15.998;2024-01-30T05:53:55;1.13;;;0.40;;
69937;SDS011;57248;47.320;15.998;2024-01-30T05:56:27;2.27;;;0.30;;
69937;SDS011;57248;47.320;15.998;2024-01-30T05:59:00;1.40;;;0.43;;
69937;SDS011;57248;47.320;15.998;2024-01-30T06:01:32;1.45;;;0.40;;
69937;SDS011;57248;47.320;15.998;2024-01-30T06:04:11;1.65;;;0.40;;
69937;SDS011;57248;47.320;15.998;2024-01-30T06:06:45;1.55;;;0.32;;
69937;SDS011;57248;47.320;15.998;2024-01-30T06:09:16;0.77;;;0.17;;
69937;SDS011;57248;47.320;15.998;2024-01-30T06:11:49;1.10;;;0.25;;
69937;SDS011;57248;47.320;15.998;2024-01-30T06:14:15;0.60;;;0.10;;
69937;SDS011;57248;47.320;15.998;2024-01-30T06:16:46;1.08;;;0.28;;
69937;SDS011;57248;47.320;15.998;2024-01-30T06:19:19;2.15;;;1.08;;
69937;SDS011;57248;47.320;15.998;2024-01-30T06:21:51;2.83;;;1.10;;
69937;SDS011;57248;47.320;15.998;2024-01-30T06:24:23;0.50;;;0.15;;
69937;SDS011;57248;47.320;15.998;2024-01-30T06:27:04;0.83;;;0.20;;
69937;SDS011;57248;47.320;15.998;2024-01-30T06:29:36;1.52;;;0.50;;
69937;SDS011;57248;47.320;15.998;2024-01-30T06:32:09;4.13;;;0.93;;
69937;SDS011;57248;47.320;15.998;2024-01-30T06:34:41;2.08;;;0.98;;
69937;SDS011;57248;47.320;15.998;2024-01-30T06:37:15;0.95;;;0.35;;
69937;SDS011;57248;47.320;15.998;2024-01-30T06:39:47;0.97;;;0.57;;
69937;SDS011;57248;47.320;15.998;2024-01-30T06:42:19;1.33;;;0.32;;
69937;SDS011;57248;47.320;15.998;2024-01-30T06:44:51;2.00;;;0.65;;
69937;SDS011;57248;47.320;15.998;2024-01-30T06:47:25;2.17;;;0.43;;
69937;SDS011;57248;47.320;15.998;2024-01-30T06:49:56;1.90;;;0.50;;
69937;SDS011;57248;47.320;15.998;2024-01-30T06:52:29;1.43;;;0.17;;
69937;SDS011;57248;47.320;15.998;2024-01-30T06:55:01;2.35;;;1.23;;
69937;SDS011;57248;47.320;15.998;2024-01-30T06:57:28;1.65;;;0.82;;
69937;SDS011;57248;47.320;15.998;2024-01-30T07:00:00;1.30;;;0.60;;
69937;SDS011;57248;47.320;15.998;2024-01-30T07:02:32;3.40;;;1.05;;
69937;SDS011;57248;47.320;15.998;2024-01-30T07:05:04;2.80;;;0.63;;
69937;SDS011;57248;47.320;15.998;2024-01-30T07:07:36;3.90;;;1.02;;
69937;SDS011;57248;47.320;15.998;2024-01-30T07:10:08;2.65;;;0.82;;
69937;SDS011;57248;47.320;15.998;2024-01-30T07:12:40;1.42;;;0.70;;
69937;SDS011;57248;47.320;15.998;2024-01-30T07:15:12;6.93;;;1.80;;
69937;SDS011;57248;47.320;15.998;2024-01-30T07:17:47;14.00;;;2.37;;
69937;SDS011;57248;47.320;15.998;2024-01-30T07:20:20;5.18;;;1.85;;
69937;SDS011;57248;47.320;15.998;2024-01-30T07:22:51;4.20;;;1.77;;
69937;SDS011;57248;47.320;15.998;2024-01-30T07:25:24;7.75;;;2.38;;
69937;SDS011;57248;47.320;15.998;2024-01-30T07:28:00;11.40;;;2.70;;
69937;SDS011;57248;47.320;15.998;2024-01-30T07:30:32;4.47;;;1.50;;
69937;SDS011;57248;47.320;15.998;2024-01-30T07:33:04;4.20;;;1.35;;
69937;SDS011;57248;47.320;15.998;2024-01-30T07:35:36;3.50;;;1.45;;
69937;SDS011;57248;47.320;15.998;2024-01-30T07:38:10;7.10;;;1.42;;
69937;SDS011;57248;47.320;15.998;2024-01-30T07:40:49;10.27;;;3.42;;
69937;SDS011;57248;47.320;15.998;2024-01-30T07:43:20;10.70;;;2.83;;
69937;SDS011;57248;47.320;15.998;2024-01-30T07:45:52;11.07;;;3.13;;
69937;SDS011;57248;47.320;15.998;2024-01-30T07:48:25;5.60;;;1.83;;
69937;SDS011;57248;47.320;15.998;2024-01-30T07:50:57;5.68;;;2.72;;
69937;SDS011;57248;47.320;15.998;2024-01-30T07:53:30;6.22;;;1.58;;
69937;SDS011;57248;47.320;15.998;2024-01-30T07:56:03;5.73;;;1.90;;
69937;SDS011;57248;47.320;15.998;2024-01-30T07:58:36;10.00;;;1.75;;
69937;SDS011;57248;47.320;15.998;2024-01-30T08:01:08;11.35;;;2.78;;
69937;SDS011;57248;47.320;15.998;2024-01-30T08:03:40;8.05;;;2.83;;
69937;SDS011;57248;47.320;15.998;2024-01-30T08:06:12;8.25;;;2.72;;
69937;SDS011;57248;47.320;15.998;2024-01-30T08:08:44;9.83;;;3.03;;
69937;SDS011;57248;47.320;15.998;2024-01-30T08:11:17;5.10;;;2.05;;
69937;SDS011;57248;47.320;15.998;2024-01-30T08:13:53;5.90;;;2.28;;
69937;SDS011;57248;47.320;15.998;2024-01-30T08:16:25;5.63;;;2.00;;
69937;SDS011;57248;47.320;15.998;2024-01-30T08:18:57;5.78;;;2.35;;
69937;SDS011;57248;47.320;15.998;2024-01-30T08:21:31;6.97;;;2.37;;
69937;SDS011;57248;47.320;15.998;2024-01-30T08:24:07;8.82;;;2.90;;
69937;SDS011;57248;47.320;15.998;2024-01-30T08:26:39;7.20;;;2.22;;
69937;SDS011;57248;47.320;15.998;2024-01-30T08:29:05;6.87;;;2.07;;
69937;SDS011;57248;47.320;15.998;2024-01-30T08:31:37;8.10;;;1.80;;
69937;SDS011;57248;47.320;15.998;2024-01-30T08:34:09;9.30;;;2.08;;
69937;SDS011;57248;47.320;15.998;2024-01-30T08:36:41;6.78;;;1.83;;
69937;SDS011;57248;47.320;15.998;2024-01-30T08:39:20;9.93;;;2.70;;
69937;SDS011;57248;47.320;15.998;2024-01-30T08:41:52;6.60;;;2.10;;
69937;SDS011;57248;47.320;15.998;2024-01-30T08:44:25;6.97;;;2.63;;
69937;SDS011;57248;47.320;15.998;2024-01-30T08:46:58;5.25;;;1.83;;
69937;SDS011;57248;47.320;15.998;2024-01-30T08:49:31;7.70;;;2.42;;
69937;SDS011;57248;47.320;15.998;2024-01-30T08:52:03;7.10;;;2.87;;
69937;SDS011;57248;47.320;15.998;2024-01-30T08:54:35;7.53;;;3.08;;
69937;SDS011;57248;47.320;15.998;2024-01-30T08:57:01;8.02;;;2.83;;
69937;SDS011;57248;47.320;15.998;2024-01-30T08:59:34;7.73;;;2.70;;
69937;SDS011;57248;47.320;15.998;2024-01-30T09:02:05;9.30;;;2.80;;
69937;SDS011;57248;47.320;15.998;2024-01-30T09:04:38;8.40;;;3.10;;
69937;SDS011;57248;47.320;15.998;2024-01-30T09:07:03;9.95;;;3.40;;
69937;SDS011;57248;47.320;15.998;2024-01-30T09:09:38;11.03;;;3.97;;
69937;SDS011;57248;47.320;15.998;2024-01-30T09:12:11;9.02;;;3.35;;
69937;SDS011;57248;47.320;15.998;2024-01-30T09:14:44;10.20;;;3.90;;
69937;SDS011;57248;47.320;15.998;2024-01-30T09:17:16;9.48;;;3.95;;
69937;SDS011;57248;47.320;15.998;2024-01-30T09:19:49;10.23;;;4.00;;
69937;SDS011;57248;47.320;15.998;2024-01-30T09:22:21;12.73;;;4.43;;
69937;SDS011;57248;47.320;15.998;2024-01-30T09:24:47;8.77;;;3.60;;
69937;SDS011;57248;47.320;15.998;2024-01-30T09:27:18;7.70;;;3.83;;
69937;SDS011;57248;47.320;15.998;2024-01-30T09:29:52;11.18;;;4.45;;
69937;SDS011;57248;47.320;15.998;2024-01-30T09:32:24;9.38;;;4.40;;
69937;SDS011;57248;47.320;15.998;2024-01-30T09:34:57;10.70;;;3.95;;
69937;SDS011;57248;47.320;15.998;2024-01-30T09:37:28;14.70;;;5.10;;
69937;SDS011;57248;47.320;15.998;2024-01-30T09:40:03;11.43;;;4.80;;
69937;SDS011;57248;47.320;15.998;2024-01-30T09:42:42;13.55;;;4.85;;
69937;SDS011;57248;47.320;15.998;2024-01-30T09:45:19;8.55;;;3.78;;
69937;SDS011;57248;47.320;15.998;2024-01-30T09:47:52;12.07;;;4.38;;
69937;SDS011;57248;47.320;15.998;2024-01-30T09:50:24;11.85;;;4.32;;
69937;SDS011;57248;47.320;15.998;2024-01-30T09:52:57;9.97;;;4.50;;
69937;SDS011;57248;47.320;15.998;2024-01-30T09:55:31;8.60;;;3.60;;
69937;SDS011;57248;47.320;15.998;2024-01-30T09:58:02;11.25;;;4.22;;
69937;SDS011;57248;47.320;15.998;2024-01-30T10:00:35;10.48;;;4.05;;
69937;SDS011;57248;47.320;15.998;2024-01-30T10:03:06;11.65;;;4.75;;
69937;SDS011;57248;47.320;15.998;2024-01-30T10:05:38;9.27;;;3.97;;
69937;SDS011;57248;47.320;15.998;2024-01-30T10:08:12;12.80;;;4.10;;
69937;SDS011;57248;47.320;15.998;2024-01-30T10:10:45;13.75;;;5.40;;
69937;SDS011;57248;47.320;15.998;2024-01-30T10:13:18;10.20;;;4.75;;
69937;SDS011;57248;47.320;15.998;2024-01-30T10:15:52;13.05;;;5.63;;
69937;SDS011;57248;47.320;15.998;2024-01-30T10:18:24;13.87;;;5.80;;
69937;SDS011;57248;47.320;15.998;2024-01-30T10:20:58;17.70;;;6.53;;
69937;SDS011;57248;47.320;15.998;2024-01-30T10:23:31;10.93;;;5.57;;
69937;SDS011;57248;47.320;15.998;2024-01-30T10:25:56;13.90;;;6.20;;
69937;SDS011;57248;47.320;15.998;2024-01-30T10:28:29;10.13;;;4.82;;
69937;SDS011;57248;47.320;15.998;2024-01-30T10:31:02;13.30;;;5.32;;
69937;SDS011;57248;47.320;15.998;2024-01-30T10:33:37;12.02;;;6.10;;
69937;SDS011;57248;47.320;15.998;2024-01-30T10:36:05;16.13;;;5.37;;
69937;SDS011;57248;47.320;15.998;2024-01-30T10:38:44;10.23;;;5.35;;
69937;SDS011;57248;47.320;15.998;2024-01-30T10:41:19;11.48;;;4.82;;
69937;SDS011;57248;47.320;15.998;2024-01-30T10:44:08;13.70;;;5.68;;
69937;SDS011;57248;47.320;15.998;2024-01-30T10:46:50;11.70;;;4.57;;
69937;SDS011;57248;47.320;15.998;2024-01-30T10:49:25;12.95;;;5.13;;
69937;SDS011;57248;47.320;15.998;2024-01-30T10:51:57;12.95;;;5.38;;
69937;SDS011;57248;47.320;15.998;2024-01-30T10:54:30;13.38;;;4.55;;
69937;SDS011;57248;47.320;15.998;2024-01-30T10:57:03;12.07;;;4.57;;
69937;SDS011;57248;47.320;15.998;2024-01-30T10:59:36;13.23;;;4.67;;
69937;SDS011;57248;47.320;15.998;2024-01-30T11:02:09;10.65;;;4.35;;
69937;SDS011;57248;47.320;15.998;2024-01-30T11:04:43;10.45;;;3.45;;
69937;SDS011;57248;47.320;15.998;2024-01-30T11:07:23;12.30;;;4.38;;
69937;SDS011;57248;47.320;15.998;2024-01-30T11:10:01;11.10;;;4.50;;
69937;SDS011;57248;47.320;15.998;2024-01-30T11:12:38;10.50;;;3.93;;
69937;SDS011;57248;47.320;15.998;2024-01-30T11:15:16;10.35;;;4.40;;
69937;SDS011;57248;47.320;15.998;2024-01-30T11:20:25;9.75;;;5.57;;
69937;SDS011;57248;47.320;15.998;2024-01-30T11:22:59;11.38;;;3.60;;
69937;SDS011;57248;47.320;15.998;2024-01-30T11:25:34;12.50;;;4.57;;
69937;SDS011;57248;47.320;15.998;2024-01-30T11:28:06;14.07;;;5.07;;
69937;SDS011;57248;47.320;15.998;2024-01-30T11:30:45;12.30;;;4.40;;
69937;SDS011;57248;47.320;15.998;2024-01-30T11:33:29;14.13;;;4.55;;
69937;SDS011;57248;47.320;15.998;2024-01-30T11:36:05;12.70;;;4.07;;
69937;SDS011;57248;47.320;15.998;2024-01-30T11:38:45;12.27;;;4.97;;
69937;SDS011;57248;47.320;15.998;2024-01-30T11:41:19;10.75;;;4.05;;
69937;SDS011;57248;47.320;15.998;2024-01-30T11:43:52;12.55;;;3.78;;
69937;SDS011;57248;47.320;15.998;2024-01-30T11:46:25;11.60;;;4.07;;
69937;SDS011;57248;47.320;15.998;2024-01-30T11:48:57;8.93;;;3.78;;
69937;SDS011;57248;47.320;15.998;2024-01-30T11:51:30;11.07;;;4.40;;
69937;SDS011;57248;47.320;15.998;2024-01-30T11:54:03;11.02;;;4.68;;
69937;SDS011;57248;47.320;15.998;2024-01-30T11:56:28;7.67;;;3.17;;
69937;SDS011;57248;47.320;15.998;2024-01-30T11:59:01;10.03;;;3.53;;
69937;SDS011;57248;47.320;15.998;2024-01-30T12:01:34;9.65;;;3.78;;
69937;SDS011;57248;47.320;15.998;2024-01-30T12:03:59;8.13;;;3.00;;
69937;SDS011;57248;47.320;15.998;2024-01-30T12:06:42;6.88;;;2.42;;
69937;SDS011;57248;47.320;15.998;2024-01-30T12:09:14;6.53;;;2.65;;
69937;SDS011;57248;47.320;15.998;2024-01-30T12:11:46;15.93;;;3.63;;
69937;SDS011;57248;47.320;15.998;2024-01-30T12:14:20;8.57;;;2.90;;
69937;SDS011;57248;47.320;15.998;2024-01-30T12:16:48;10.30;;;3.70;;
69937;SDS011;57248;47.320;15.998;2024-01-30T12:19:24;10.82;;;4.18;;
69937;SDS011;57248;47.320;15.998;2024-01-30T12:21:54;10.50;;;4.00;;
69937;SDS011;57248;47.320;15.998;2024-01-30T12:24:46;7.30;;;3.25;;
69937;SDS011;57248;47.320;15.998;2024-01-30T12:27:26;7.75;;;3.20;;
69937;SDS011;57248;47.320;15.998;2024-01-30T12:29:58;8.47;;;3.50;;
69937;SDS011;57248;47.320;15.998;2024-01-30T12:32:23;9.80;;;3.50;;
69937;SDS011;57248;47.320;15.998;2024-01-30T12:34:56;9.18;;;4.20;;
69937;SDS011;57248;47.320;15.998;2024-01-30T12:37:29;11.20;;;4.90;;
69937;SDS011;57248;47.320;15.998;2024-01-30T12:40:02;11.57;;;3.30;;
69937;SDS011;57248;47.320;15.998;2024-01-30T12:42:41;8.35;;;3.45;;
69937;SDS011;57248;47.320;15.998;2024-01-30T12:45:14;9.73;;;3.13;;
69937;SDS011;57248;47.320;15.998;2024-01-30T12:47:55;6.90;;;3.03;;
69937;SDS011;57248;47.320;15.998;2024-01-30T12:50:27;10.30;;;4.40;;
69937;SDS011;57248;47.320;15.998;2024-01-30T12:52:52;8.50;;;2.90;;
69937;SDS011;57248;47.320;15.998;2024-01-30T12:55:24;13.27;;;3.37;;
69937;SDS011;57248;47.320;15.998;2024-01-30T12:58:00;7.40;;;3.53;;
69937;SDS011;57248;47.320;15.998;2024-01-30T13:00:32;8.00;;;2.75;;
69937;SDS011;57248;47.320;15.998;2024-01-30T13:03:06;9.50;;;3.65;;
69937;SDS011;57248;47.320;15.998;2024-01-30T13:05:39;12.30;;;4.07;;
69937;SDS011;57248;47.320;15.998;2024-01-30T13:08:11;11.63;;;3.50;;
69937;SDS011;57248;47.320;15.998;2024-01-30T13:10:45;9.40;;;3.50;;
69937;SDS011;57248;47.320;15.998;2024-01-30T13:13:17;8.82;;;3.45;;
69937;SDS011;57248;47.320;15.998;2024-01-30T13:15:50;7.38;;;2.90;;
69937;SDS011;57248;47.320;15.998;2024-01-30T13:18:22;12.25;;;3.30;;
69937;SDS011;57248;47.320;15.998;2024-01-30T13:20:47;6.60;;;2.40;;
69937;SDS011;57248;47.320;15.998;2024-01-30T13:23:19;7.40;;;2.83;;
69937;SDS011;57248;47.320;15.998;2024-01-30T13:25:52;7.03;;;2.70;;
69937;SDS011;57248;47.320;15.998;2024-01-30T13:28:26;8.87;;;3.30;;
69937;SDS011;57248;47.320;15.998;2024-01-30T13:30:58;9.50;;;3.45;;
69937;SDS011;57248;47.320;15.998;2024-01-30T13:33:32;10.63;;;3.88;;
69937;SDS011;57248;47.320;15.998;2024-01-30T13:36:04;8.23;;;3.05;;
69937;SDS011;57248;47.320;15.998;2024-01-30T13:38:36;9.20;;;3.25;;
69937;SDS011;57248;47.320;15.998;2024-01-30T13:41:15;8.70;;;2.63;;
69937;SDS011;57248;47.320;15.998;2024-01-30T13:43:48;9.57;;;3.72;;
69937;SDS011;57248;47.320;15.998;2024-01-30T13:46:21;6.28;;;2.47;;
69937;SDS011;57248;47.320;15.998;2024-01-30T13:48:53;11.68;;;3.20;;
69937;SDS011;57248;47.320;15.998;2024-01-30T13:51:18;8.20;;;2.43;;
69937;SDS011;57248;47.320;15.998;2024-01-30T13:53:52;9.35;;;3.17;;
69937;SDS011;57248;47.320;15.998;2024-01-30T13:56:25;9.25;;;3.80;;
69937;SDS011;57248;47.320;15.998;2024-01-30T13:58:58;8.03;;;2.83;;
69937;SDS011;57248;47.320;15.998;2024-01-30T14:01:32;8.05;;;3.00;;
69937;SDS011;57248;47.320;15.998;2024-01-30T14:04:05;10.02;;;3.72;;
69937;SDS011;57248;47.320;15.998;2024-01-30T14:06:37;10.68;;;3.97;;
69937;SDS011;57248;47.320;15.998;2024-01-30T14:09:09;10.35;;;3.65;;
69937;SDS011;57248;47.320;15.998;2024-01-30T14:11:36;9.57;;;3.80;;
69937;SDS011;57248;47.320;15.998;2024-01-30T14:14:08;11.77;;;3.47;;
69937;SDS011;57248;47.320;15.998;2024-01-30T14:16:41;8.02;;;3.42;;
69937;SDS011;57248;47.320;15.998;2024-01-30T14:19:13;10.75;;;3.83;;
69937;SDS011;57248;47.320;15.998;2024-01-30T14:21:45;11.77;;;4.18;;
69937;SDS011;57248;47.320;15.998;2024-01-30T14:24:17;9.00;;;2.80;;
69937;SDS011;57248;47.320;15.998;2024-01-30T14:26:49;12.23;;;3.28;;
69937;SDS011;57248;47.320;15.998;2024-01-30T14:29:23;8.10;;;3.17;;
69937;SDS011;57248;47.320;15.998;2024-01-30T14:31:55;13.32;;;4.60;;
69937;SDS011;57248;47.320;15.998;2024-01-30T14:34:29;14.98;;;6.82;;
69937;SDS011;57248;47.320;15.998;2024-01-30T14:37:03;12.93;;;4.93;;
69937;SDS011;57248;47.320;15.998;2024-01-30T14:39:35;13.80;;;5.63;;
69937;SDS011;57248;47.320;15.998;2024-01-30T14:42:15;12.07;;;4.30;;
69937;SDS011;57248;47.320;15.998;2024-01-30T14:44:47;12.63;;;4.80;;
69937;SDS011;57248;47.320;15.998;2024-01-30T14:47:21;13.75;;;4.80;;
69937;SDS011;57248;47.320;15.998;2024-01-30T14:49:53;11.47;;;4.93;;
69937;SDS011;57248;47.320;15.998;2024-01-30T14:52:25;14.18;;;4.60;;
69937;SDS011;57248;47.320;15.998;2024-01-30T14:54:57;11.27;;;5.18;;
69937;SDS011;57248;47.320;15.998;2024-01-30T14:57:29;13.90;;;5.15;;
69937;SDS011;57248;47.320;15.998;2024-01-30T15:00:03;10.75;;;3.92;;
69937;SDS011;57248;47.320;15.998;2024-01-30T15:02:36;15.40;;;5.23;;
69937;SDS011;57248;47.320;15.998;2024-01-30T15:05:08;11.13;;;4.97;;